createdAt,value
2023-03-03T00:04:02.369Z,98186.13
2023-03-03T00:09:04.236Z,98194.66
2023-03-03T00:14:22.148Z,98193.59
2023-03-03T00:19:24.570Z,98192.03
2023-03-03T00:24:37.787Z,98198.16
2023-03-03T00:29:48.427Z,98200.50
2023-03-03T00:34:52.079Z,98206.13
2023-03-03T00:39:54.240Z,98204.13
2023-03-03T00:45:00.374Z,98201.75
2023-03-03T00:50:11.672Z,98203.72
2023-03-03T00:55:13.624Z,98205.59
2023-03-03T01:00:15.838Z,98197.44
2023-03-03T01:05:18.962Z,98213.53
2023-03-03T01:10:21.051Z,98199.13
2023-03-03T01:15:23.027Z,98193.00
2023-03-03T01:20:24.964Z,98188.09
2023-03-03T01:25:26.976Z,98187.91
2023-03-03T01:30:28.852Z,98192.66
2023-03-03T01:35:30.947Z,98200.44
2023-03-03T01:40:33.135Z,98192.47
2023-03-03T01:45:50.331Z,98199.50
2023-03-03T01:50:57.612Z,98190.94
2023-03-03T01:56:01.628Z,98189.53
2023-03-03T02:01:12.377Z,98202.09
2023-03-03T02:06:16.637Z,98204.75
2023-03-03T02:11:20.300Z,98207.88
2023-03-03T02:16:22.280Z,98198.84
2023-03-03T02:21:27.779Z,98195.28
2023-03-03T02:26:33.094Z,98190.28
2023-03-03T02:31:40.400Z,98178.28
2023-03-03T02:36:42.515Z,98171.88
2023-03-03T02:42:09.207Z,98166.13
2023-03-03T02:47:16.739Z,98175.38
2023-03-03T02:52:19.191Z,98180.38
2023-03-03T02:57:22.332Z,98176.44
2023-03-03T03:02:24.503Z,98181.44
2023-03-03T03:07:26.480Z,98193.66
2023-03-03T03:12:28.451Z,98189.03
2023-03-03T03:17:31.839Z,98186.06
2023-03-03T03:22:35.410Z,98192.75
2023-03-03T03:27:38.359Z,98189.09
2023-03-03T03:32:40.339Z,98194.59
2023-03-03T03:37:42.239Z,98205.44
2023-03-03T03:42:44.232Z,98203.06
2023-03-03T03:47:46.325Z,98188.41
2023-03-03T03:52:50.039Z,98188.59
2023-03-03T03:57:52.145Z,98183.56
2023-03-03T04:02:54.684Z,98196.88
2023-03-03T04:07:56.669Z,98186.81
2023-03-03T04:12:58.824Z,98195.59
2023-03-03T04:18:00.938Z,98194.31
2023-03-03T04:23:03.489Z,98196.47
2023-03-03T04:28:06.921Z,98197.75
2023-03-03T04:33:10.126Z,98212.69
2023-03-03T04:38:14.571Z,98209.97
2023-03-03T04:43:17.297Z,98224.19
2023-03-03T04:48:19.291Z,98221.16
2023-03-03T04:53:21.364Z,98217.38
2023-03-03T04:58:23.455Z,98225.63
2023-03-03T05:03:27.246Z,98223.19
2023-03-03T05:08:29.419Z,98229.06
2023-03-03T05:13:31.753Z,98229.66
2023-03-03T05:18:33.638Z,98238.53
2023-03-03T05:23:35.552Z,98251.00
2023-03-03T05:28:37.463Z,98259.00
2023-03-03T05:33:39.430Z,98263.13
2023-03-03T05:38:41.347Z,98261.47
2023-03-03T05:43:43.337Z,98279.72
2023-03-03T05:48:45.568Z,98273.44
2023-03-03T05:53:47.606Z,98268.56
2023-03-03T05:58:49.473Z,98265.97
2023-03-03T06:03:51.151Z,98264.94
2023-03-03T06:08:55.511Z,98263.31
2023-03-03T06:13:59.331Z,98256.75
2023-03-03T06:19:01.461Z,98272.72
2023-03-03T06:24:03.230Z,98266.88
2023-03-03T06:29:04.885Z,98278.28
2023-03-03T06:34:06.537Z,98286.38
2023-03-03T06:39:08.206Z,98285.41
2023-03-03T06:44:11.868Z,98275.28
2023-03-03T06:49:13.554Z,98275.53
2023-03-03T06:54:21.660Z,98273.03
2023-03-03T06:59:23.806Z,98265.44
2023-03-03T07:04:33.821Z,98279.69
2023-03-03T07:09:35.545Z,98274.56
2023-03-03T07:14:51.621Z,98278.03
2023-03-03T07:19:53.797Z,98289.97
2023-03-03T07:25:01.804Z,98297.06
2023-03-03T07:30:28.251Z,98304.56
2023-03-03T07:35:38.770Z,98306.34
2023-03-03T07:40:51.424Z,98324.69
2023-03-03T07:45:53.888Z,98336.56
2023-03-03T07:51:05.376Z,98333.66
2023-03-03T07:56:27.314Z,98337.47
2023-03-03T08:01:39.745Z,98339.50
2023-03-03T08:07:01.945Z,98340.72
2023-03-03T08:12:06.642Z,98348.09
2023-03-03T08:17:20.049Z,98343.56
2023-03-03T08:22:37.881Z,98343.22
2023-03-03T08:27:39.512Z,98347.91
2023-03-03T08:32:41.228Z,98343.78
2023-03-03T08:37:42.925Z,98339.16
2023-03-03T08:42:44.562Z,98354.56
2023-03-03T08:47:46.638Z,98346.59
2023-03-03T08:52:48.517Z,98356.13
2023-03-03T08:57:50.172Z,98352.34
2023-03-03T09:02:52.440Z,98359.56
2023-03-03T09:07:55.299Z,98359.97
2023-03-03T09:13:01.277Z,98358.63
2023-03-03T09:18:30.538Z,98356.13
2023-03-03T09:23:35.634Z,98365.22
2023-03-03T09:28:37.575Z,98367.47
2023-03-03T09:33:47.561Z,98380.66
2023-03-03T09:38:49.732Z,98375.44
2023-03-03T09:44:00.259Z,98377.50
2023-03-03T09:49:30.774Z,98382.63
2023-03-03T09:54:51.122Z,98384.78
2023-03-03T10:00:15.857Z,98377.63
2023-03-03T10:05:17.441Z,98387.94
2023-03-03T10:10:49.031Z,98391.56
2023-03-03T10:16:13.028Z,98387.75
2023-03-03T10:21:25.641Z,98393.19
2023-03-03T10:26:42.202Z,98394.91
2023-03-03T10:32:02.206Z,98389.69
2023-03-03T10:37:13.063Z,98393.91
2023-03-03T10:42:33.472Z,98395.41
2023-03-03T10:47:56.455Z,98406.88
2023-03-03T10:53:24.012Z,98400.34
2023-03-03T10:58:34.785Z,98396.72
2023-03-03T11:03:58.959Z,98416.44
2023-03-03T11:09:37.628Z,98406.09
2023-03-03T11:14:54.974Z,98400.88
2023-03-03T11:20:02.848Z,98409.16
2023-03-03T11:25:16.745Z,98410.22
2023-03-03T11:30:30.642Z,98396.97
2023-03-03T11:35:48.862Z,98389.41
2023-03-03T11:41:18.301Z,98401.59
2023-03-03T11:46:27.078Z,98391.22
2023-03-03T11:51:44.079Z,98392.88
2023-03-03T11:56:47.457Z,98380.88
2023-03-03T12:02:03.452Z,98383.13
2023-03-03T12:07:17.908Z,98377.19
2023-03-03T12:12:32.034Z,98382.94
2023-03-03T12:17:36.679Z,98371.25
2023-03-03T12:23:07.322Z,98366.84
2023-03-03T12:28:27.162Z,98379.44
2023-03-03T12:33:37.944Z,98385.91
2023-03-03T12:39:07.325Z,98382.72
2023-03-03T12:44:24.236Z,98371.56
2023-03-03T12:49:44.108Z,98365.50
2023-03-03T12:55:20.630Z,98359.84
2023-03-03T13:00:40.740Z,98361.72
2023-03-03T13:06:08.385Z,98358.00
2023-03-03T13:11:55.393Z,98348.31
2023-03-03T13:17:15.354Z,98344.22
2023-03-03T13:22:42.904Z,98349.94
2023-03-03T13:27:47.901Z,98351.25
2023-03-03T13:33:08.466Z,98349.63
2023-03-03T13:38:15.563Z,98339.47
2023-03-03T13:43:41.103Z,98344.50
2023-03-03T13:49:04.194Z,98354.38
2023-03-03T13:54:15.088Z,98357.91
2023-03-03T13:59:52.673Z,98364.06
2023-03-03T14:05:17.666Z,98348.44
2023-03-03T14:10:44.323Z,98348.16
2023-03-03T14:16:07.369Z,98345.03
2023-03-03T14:21:18.955Z,98338.72
2023-03-03T14:26:20.860Z,98332.53
2023-03-03T14:31:28.798Z,98327.38
2023-03-03T14:36:42.781Z,98330.13
2023-03-03T14:41:44.462Z,98328.22
2023-03-03T14:46:46.104Z,98333.19
2023-03-03T14:51:50.064Z,98326.69
2023-03-03T14:57:12.116Z,98314.06
2023-03-03T15:02:16.796Z,98290.47
2023-03-03T15:07:40.088Z,98305.94
2023-03-03T15:12:42.144Z,98298.66
2023-03-03T15:18:00.470Z,98291.25
2023-03-03T15:23:30.113Z,98290.00
2023-03-03T15:28:34.725Z,98279.84
2023-03-03T15:33:58.937Z,98283.81
2023-03-03T15:39:28.622Z,98288.59
2023-03-03T15:44:55.297Z,98282.34
2023-03-03T15:50:06.534Z,98278.19
2023-03-03T15:55:44.716Z,98271.19
2023-03-03T16:01:15.736Z,98269.72
2023-03-03T16:06:43.223Z,98286.81
2023-03-03T16:11:50.760Z,98285.53
2023-03-03T16:17:10.281Z,98282.03
2023-03-03T16:22:41.815Z,98287.53
2023-03-03T16:27:51.389Z,98290.84
2023-03-03T16:33:18.321Z,98289.66
2023-03-03T16:38:29.194Z,98300.28
2023-03-03T16:43:36.676Z,98298.78
2023-03-03T16:48:53.025Z,98315.84
2023-03-03T16:54:07.716Z,98307.97
2023-03-03T16:59:34.181Z,98312.63
2023-03-03T17:04:51.069Z,98308.34
2023-03-03T17:10:04.874Z,98310.16
2023-03-03T17:15:12.744Z,98304.06
2023-03-03T17:20:17.291Z,98305.06
2023-03-03T17:25:45.782Z,98308.44
2023-03-03T17:31:26.980Z,98309.63
2023-03-03T17:36:47.570Z,98316.94
2023-03-03T17:42:10.070Z,98327.78
2023-03-03T17:47:24.526Z,98332.31
2023-03-03T17:52:51.563Z,98328.31
2023-03-03T17:58:05.562Z,98321.00
2023-03-03T18:03:29.815Z,98322.31
2023-03-03T18:09:13.624Z,98322.47
2023-03-03T18:14:23.912Z,98324.13
2023-03-03T18:20:11.267Z,98319.78
2023-03-03T18:25:18.962Z,98330.88
2023-03-03T18:30:29.549Z,98326.94
2023-03-03T18:35:34.381Z,98332.28
2023-03-03T18:40:53.165Z,98326.41
2023-03-03T18:45:55.928Z,98327.16
2023-03-03T18:50:57.616Z,98332.34
2023-03-03T18:56:01.512Z,98337.09
2023-03-03T19:01:14.138Z,98327.06
2023-03-03T19:06:31.172Z,98328.97
2023-03-03T19:11:35.862Z,98328.97
2023-03-03T19:16:38.415Z,98331.13
2023-03-03T19:21:42.807Z,98328.78
2023-03-03T19:27:02.835Z,98322.03
2023-03-03T19:32:35.593Z,98332.88
2023-03-03T19:38:15.008Z,98333.06
2023-03-03T19:43:22.681Z,98333.25
2023-03-03T19:48:48.538Z,98332.06
2023-03-03T19:54:14.445Z,98331.13
2023-03-03T19:59:56.098Z,98334.44
2023-03-03T20:04:57.765Z,98338.19
2023-03-03T20:10:18.310Z,98336.59
2023-03-03T20:15:26.139Z,98339.03
2023-03-03T20:20:33.805Z,98330.03
2023-03-03T20:26:20.575Z,98335.81
2023-03-03T20:31:37.264Z,98333.88
2023-03-03T20:36:55.984Z,98325.47
2023-03-03T20:42:36.189Z,98326.66
2023-03-03T20:47:38.195Z,98322.47
2023-03-03T20:53:18.535Z,98322.66
2023-03-03T20:58:47.649Z,98320.47
2023-03-03T21:03:49.332Z,98314.28
2023-03-03T21:08:54.728Z,98311.56
2023-03-03T21:13:56.754Z,98318.84
2023-03-03T21:19:11.381Z,98316.47
2023-03-03T21:24:17.397Z,98305.31
2023-03-03T21:29:23.766Z,98312.72
2023-03-03T21:34:32.705Z,98308.81
2023-03-03T21:39:43.719Z,98310.38
2023-03-03T21:44:50.503Z,98298.13
2023-03-03T21:49:52.848Z,98294.53
2023-03-03T21:54:55.033Z,98292.00
2023-03-03T21:59:56.896Z,98293.19
2023-03-03T22:04:58.686Z,98290.00
2023-03-03T22:10:00.524Z,98292.94
2023-03-03T22:15:02.284Z,98294.50
2023-03-03T22:20:04.206Z,98287.66
2023-03-03T22:25:06.429Z,98283.34
2023-03-03T22:30:08.823Z,98288.09
2023-03-03T22:35:10.606Z,98283.53
2023-03-03T22:40:13.049Z,98284.28
2023-03-03T22:45:14.899Z,98272.69
2023-03-03T22:50:17.518Z,98266.56
2023-03-03T22:55:19.183Z,98264.41
2023-03-03T23:00:21.503Z,98260.22
2023-03-03T23:05:23.660Z,98251.41
2023-03-03T23:10:25.485Z,98260.91
2023-03-03T23:15:27.443Z,98258.53
2023-03-03T23:20:30.314Z,98245.78
2023-03-03T23:25:31.968Z,98240.66
2023-03-03T23:30:33.842Z,98230.44
2023-03-03T23:35:35.484Z,98234.03
2023-03-03T23:40:37.106Z,98229.09
2023-03-03T23:45:38.720Z,98232.38
2023-03-03T23:50:40.518Z,98229.03
2023-03-03T23:55:43.220Z,98228.09
